| time (UTC) | temp F | wind direction | speed MPH | gust MPH | rain 1hr in | rain 24hr in | rain mn in | humidity % | barometer mb |
| 20260903175403 | 80 | 178 | 0.0 | 0.0 | 0.00 | 0.79 | 0.48 | 76 | 1009.1 |
| 20260903174403 | 80 | 150 | 0.0 | 0.0 | 0.00 | 0.79 | 0.48 | 76 | 1009.2 |
| 20260903173403 | 80 | 183 | 0.0 | 0.0 | 0.00 | 0.79 | 0.48 | 79 | 1009.3 |
| 20260903172403 | 79 | 75 | 0.0 | 0.0 | 0.00 | 0.79 | 0.48 | 79 | 1009.2 |
| 20260903171404 | 79 | 180 | 0.0 | 1.0 | 0.00 | 0.79 | 0.48 | 77 | 1009.3 |
| 20260903170403 | 78 | 217 | 1.0 | 9.0 | 0.00 | 0.79 | 0.48 | 80 | 1009.3 |
| 20260903165404 | 78 | 165 | 2.0 | 12.0 | 0.00 | 0.79 | 0.48 | 79 | 1009.3 |
| 20260903164403 | 78 | 176 | 0.0 | 10.0 | 0.00 | 0.79 | 0.48 | 81 | 1009.4 |
| 20260903163404 | 77 | 168 | 4.0 | 15.0 | 0.00 | 0.79 | 0.48 | 79 | 1009.6 |
| 20260903162403 | 77 | 172 | 4.0 | 13.0 | 0.00 | 0.79 | 0.48 | 81 | 1009.6 |
| 20260903161404 | 77 | 90 | 2.0 | 10.0 | 0.00 | 0.79 | 0.48 | 84 | 1009.7 |
| 20260903160403 | 75 | 132 | 1.0 | 11.0 | 0.00 | 0.79 | 0.48 | 85 | 1009.8 |
| 20260903155404 | 74 | 195 | 2.0 | 9.0 | 0.00 | 0.79 | 0.48 | 84 | 1009.8 |
| 20260903154403 | 74 | 174 | 1.0 | 9.0 | 0.00 | 0.79 | 0.48 | 84 | 1010.0 |
| 20260903153424 | 74 | 224 | 2.0 | 8.0 | 0.00 | 0.79 | 0.48 | 84 | 1010.2 |
| 20260903152403 | 73 | 174 | 5.0 | 12.0 | 0.00 | 0.79 | 0.48 | 88 | 1010.3 |
| 20260903151403 | 71 | 172 | 3.0 | 10.0 | 0.00 | 0.79 | 0.48 | 88 | 1010.5 |
| 20260903150403 | 71 | 179 | 2.0 | 10.0 | 0.00 | 0.79 | 0.48 | 91 | 1010.5 |
| 20260903145403 | 70 | 160 | 3.0 | 14.0 | 0.00 | 0.79 | 0.48 | 92 | 1010.7 |
| 20260903144404 | 68 | 184 | 2.0 | 9.0 | 0.00 | 0.79 | 0.48 | 92 | 1010.8 |
| 20260903143424 | 68 | 163 | 1.0 | 7.0 | 0.00 | 0.79 | 0.48 | 92 | 1010.8 |
| 20260903142403 | 67 | 176 | 2.0 | 11.0 | 0.00 | 0.79 | 0.48 | 93 | 1010.9 |
| 20260903141403 | 67 | 186 | 2.0 | 11.0 | 0.00 | 0.79 | 0.48 | 93 | 1010.9 |
| 20260903140403 | 67 | 204 | 3.0 | 11.0 | 0.00 | 0.79 | 0.48 | 94 | 1010.8 |
| 20260903135403 | 66 | 166 | 2.0 | 7.0 | 0.00 | 0.79 | 0.48 | 94 | 1010.8 |
| 20260903134403 | 66 | 148 | 1.0 | 8.0 | 0.00 | 0.79 | 0.48 | 94 | 1010.6 |
| 20260903133403 | 66 | 178 | 1.0 | 7.0 | 0.00 | 0.79 | 0.48 | 94 | 1010.6 |
| 20260903132403 | 66 | 163 | 1.0 | 9.0 | 0.00 | 0.79 | 0.48 | 94 | 1010.8 |
| 20260903131403 | 65 | 182 | 1.0 | 9.0 | 0.00 | 0.79 | 0.48 | 94 | 1010.8 |
| 20260903130403 | 65 | 171 | 2.0 | 9.0 | 0.00 | 0.79 | 0.48 | 94 | 1010.7 |
| 20260903125404 | 65 | 183 | 3.0 | 12.0 | 0.00 | 0.79 | 0.48 | 94 | 1010.8 |
| 20260903123424 | 65 | 185 | 3.0 | 8.0 | 0.00 | 0.79 | 0.48 | 95 | 1010.8 |
| 20260903122424 | 64 | 190 | 1.0 | 9.0 | 0.00 | 0.79 | 0.48 | 95 | 1010.8 |
| 20260903121403 | 64 | 158 | 2.0 | 8.0 | 0.00 | 0.79 | 0.48 | 95 | 1010.8 |
| 20260903120403 | 64 | 181 | 1.0 | 8.0 | 0.00 | 0.79 | 0.48 | 95 | 1010.8 |
| 20260903115403 | 64 | 196 | 2.0 | 10.0 | 0.00 | 0.79 | 0.48 | 95 | 1010.9 |
| 20260903114403 | 63 | 202 | 1.0 | 8.0 | 0.00 | 0.79 | 0.48 | 95 | 1011.1 |
| 20260903113403 | 63 | 203 | 2.0 | 15.0 | 0.00 | 0.79 | 0.48 | 95 | 1011.1 |
| 20260903112403 | 63 | 191 | 2.0 | 9.0 | 0.00 | 0.79 | 0.48 | 95 | 1011.1 |
| 20260903111403 | 63 | 163 | 1.0 | 7.0 | 0.00 | 0.79 | 0.48 | 95 | 1011.1 |
| 20260903110403 | 63 | 154 | 1.0 | 9.0 | 0.00 | 0.79 | 0.48 | 95 | 1011.0 |
| 20260903105403 | 63 | 175 | 1.0 | 9.0 | 0.00 | 0.79 | 0.48 | 95 | 1010.9 |
| 20260903104402 | 63 | 195 | 0.0 | 14.0 | 0.00 | 0.79 | 0.48 | 95 | 1010.8 |
| 20260903103403 | 63 | 187 | 1.0 | 6.0 | 0.00 | 0.79 | 0.48 | 95 | 1010.8 |
| 20260903102424 | 63 | 203 | 1.0 | 8.0 | 0.00 | 0.79 | 0.48 | 95 | 1010.7 |
| 20260903101403 | 63 | 192 | 0.0 | 11.0 | 0.00 | 0.79 | 0.48 | 95 | 1010.6 |
| 20260903100425 | 62 | 160 | 1.0 | 9.0 | 0.00 | 0.79 | 0.48 | 95 | 1010.5 |
| 20260903095403 | 62 | 164 | 3.0 | 9.0 | 0.00 | 0.79 | 0.48 | 95 | 1010.5 |
| 20260903094403 | 62 | 186 | 3.0 | 9.0 | 0.00 | 0.79 | 0.48 | 95 | 1010.3 |
| 20260903093403 | 62 | 181 | 3.0 | 11.0 | 0.00 | 0.79 | 0.48 | 95 | 1010.4 |
| 20260903092403 | 62 | 196 | 2.0 | 10.0 | 0.00 | 0.79 | 0.48 | 94 | 1010.4 |
| 20260903091403 | 62 | 157 | 1.0 | 11.0 | 0.00 | 0.79 | 0.48 | 95 | 1010.4 |
| 20260903090403 | 62 | 177 | 3.0 | 9.0 | 0.00 | 0.79 | 0.48 | 95 | 1010.4 |
| 20260903085403 | 62 | 195 | 2.0 | 14.0 | 0.00 | 0.79 | 0.48 | 95 | 1010.3 |
| 20260903084403 | 61 | 165 | 3.0 | 10.0 | 0.00 | 0.79 | 0.48 | 94 | 1010.6 |
| 20260903083424 | 61 | 153 | 3.0 | 10.0 | 0.00 | 0.79 | 0.48 | 94 | 1010.5 |
| 20260903082424 | 61 | 169 | 1.0 | 14.0 | 0.00 | 0.79 | 0.48 | 94 | 1010.6 |
| 20260903081403 | 61 | 177 | 3.0 | 15.0 | 0.00 | 0.79 | 0.48 | 94 | 1010.5 |
| 20260903080403 | 61 | 178 | 3.0 | 12.0 | 0.00 | 0.79 | 0.48 | 94 | 1010.8 |
| 20260903075424 | 61 | 177 | 2.0 | 19.0 | 0.01 | 0.79 | 0.48 | 94 | 1010.8 |
| 20260903074403 | 61 | 198 | 2.0 | 12.0 | 0.00 | 0.78 | 0.47 | 94 | 1010.8 |
| 20260903073423 | 61 | 177 | 2.0 | 14.0 | 0.00 | 0.78 | 0.47 | 94 | 1010.8 |
| 20260903072403 | 61 | 189 | 3.0 | 10.0 | 0.00 | 0.78 | 0.47 | 94 | 1010.8 |
| 20260903071423 | 61 | 190 | 2.0 | 17.0 | 0.00 | 0.78 | 0.47 | 94 | 1010.8 |
| 20260903070403 | 61 | 170 | 2.0 | 14.0 | 0.00 | 0.78 | 0.47 | 94 | 1010.6 |
| 20260903065402 | 61 | 165 | 3.0 | 16.0 | 0.04 | 0.78 | 0.47 | 94 | 1010.8 |
| 20260903064403 | 61 | 178 | 5.0 | 11.0 | 0.04 | 0.78 | 0.47 | 94 | 1010.8 |
| 20260903063402 | 62 | 213 | 2.0 | 11.0 | 0.04 | 0.78 | 0.47 | 94 | 1010.8 |
| 20260903062403 | 62 | 58 | 0.0 | 14.0 | 0.04 | 0.78 | 0.47 | 94 | 1010.7 |
| 20260903061423 | 62 | 172 | 2.0 | 11.0 | 0.02 | 0.76 | 0.45 | 94 | 1010.9 |
| 20260903060403 | 62 | 175 | 2.0 | 11.0 | 0.00 | 0.74 | 0.43 | 94 | 1011.0 |
| 20260903055402 | 62 | 164 | 1.0 | 8.0 | 0.10 | 0.73 | 0.42 | 94 | 1011.1 |
| 20260903054403 | 62 | 237 | 1.0 | 11.0 | 0.09 | 0.72 | 0.41 | 94 | 1011.3 |
| 20260903053403 | 62 | 147 | 1.0 | 7.0 | 0.08 | 0.71 | 0.40 | 94 | 1011.5 |
| 20260903052403 | 62 | 149 | 1.0 | 6.0 | 0.07 | 0.70 | 0.39 | 93 | 1011.9 |
| 20260903051423 | 62 | 153 | 0.0 | 8.0 | 0.04 | 0.67 | 0.36 | 93 | 1011.9 |
| 20260903050403 | 62 | 86 | 1.0 | 9.0 | 0.00 | 0.63 | 0.32 | 93 | 1011.8 |
| 20260903045445 | 62 | 201 | 0.0 | 6.0 | 0.32 | 0.62 | 0.31 | 93 | 1012.1 |
| 20260903044403 | 62 | 162 | 2.0 | 8.0 | 0.27 | 0.57 | 0.26 | 92 | 1011.7 |
| 20260903043403 | 62 | 119 | 2.0 | 10.0 | 0.21 | 0.51 | 0.20 | 92 | 1011.7 |
| 20260903042402 | 62 | 158 | 1.0 | 11.0 | 0.14 | 0.44 | 0.13 | 92 | 1012.1 |
| 20260903041403 | 62 | 129 | 3.0 | 9.0 | 0.07 | 0.37 | 0.06 | 92 | 1012.4 |
| 20260903040423 | 63 | 147 | 1.0 | 8.0 | 0.02 | 0.32 | 0.01 | 92 | 1012.5 |
| 20260903035403 | 63 | 196 | 0.0 | 2.0 | 0.13 | 0.27 | 0.27 | 91 | 1012.6 |
| 20260903034403 | 63 | 196 | 1.0 | 12.0 | 0.10 | 0.24 | 0.24 | 91 | 1012.5 |
| 20260903033402 | 63 | 68 | 1.0 | 7.0 | 0.04 | 0.18 | 0.18 | 91 | 1012.1 |
| 20260903032403 | 63 | 133 | 0.0 | 1.0 | 0.03 | 0.17 | 0.17 | 91 | 1012.2 |
| 20260903031402 | 63 | 132 | 0.0 | 3.0 | 0.01 | 0.15 | 0.15 | 91 | 1012.1 |
| 20260903030403 | 63 | 134 | 0.0 | 8.0 | 0.00 | 0.14 | 0.14 | 90 | 1012.2 |
| 20260903025402 | 63 | 174 | 0.0 | 3.0 | 0.11 | 0.12 | 0.12 | 90 | 1012.4 |
| 20260903024403 | 63 | 174 | 0.0 | 5.0 | 0.08 | 0.09 | 0.09 | 90 | 1012.8 |
| 20260903023402 | 64 | 171 | 0.0 | 5.0 | 0.07 | 0.08 | 0.08 | 89 | 1012.7 |
| 20260903022403 | 64 | 191 | 1.0 | 5.0 | 0.06 | 0.07 | 0.07 | 89 | 1012.9 |
| 20260903021424 | 64 | 181 | 1.0 | 3.0 | 0.05 | 0.06 | 0.06 | 88 | 1012.8 |
| 20260903020402 | 65 | 148 | 0.0 | 4.0 | 0.01 | 0.02 | 0.02 | 87 | 1012.9 |
| 20260903015403 | 65 | 188 | 1.0 | 5.0 | 0.01 | 0.01 | 0.01 | 86 | 1013.1 |
| 20260903013424 | 66 | 183 | 2.0 | 8.0 | 0.00 | 0.00 | 0.00 | 83 | 1013.2 |
| 20260903012402 | 66 | 223 | 1.0 | 12.0 | 0.00 | 0.00 | 0.00 | 84 | 1013.1 |
| 20260903011403 | 66 | 177 | 1.0 | 11.0 | 0.00 | 0.00 | 0.00 | 84 | 1013.1 |
| 20260903010424 | 66 | 193 | 0.0 | 8.0 | 0.00 | 0.00 | 0.00 | 84 | 1013.3 |
| 20260903005402 | 66 | 171 | 2.0 | 10.0 | 0.00 | 0.00 | 0.00 | 84 | 1013.2 |
| 20260903004403 | 66 | 167 | 1.0 | 6.0 | 0.00 | 0.00 | 0.00 | 83 | 1013.2 |
| 20260903003402 | 66 | 180 | 0.0 | 8.0 | 0.00 | 0.00 | 0.00 | 83 | 1012.9 |
| 20260903002402 | 66 | 148 | 1.0 | 8.0 | 0.00 | 0.00 | 0.00 | 84 | 1012.7 |
| 20260903001402 | 66 | 164 | 0.0 | 5.0 | 0.00 | 0.00 | 0.00 | 84 | 1012.8 |
| 20260903000403 | 66 | 183 | 1.0 | 7.0 | 0.00 | 0.00 | 0.00 | 84 | 1013.0 |
| 20260902235403 | 66 | 104 | 1.0 | 5.0 | 0.00 | 0.00 | 0.00 | 84 | 1013.0 |
| 20260902234402 | 66 | 178 | 0.0 | 5.0 | 0.00 | 0.00 | 0.00 | 83 | 1013.0 |
| 20260902233402 | 66 | 200 | 2.0 | 9.0 | 0.00 | 0.00 | 0.00 | 83 | 1013.0 |
| 20260902232423 | 66 | 150 | 0.0 | 6.0 | 0.00 | 0.00 | 0.00 | 83 | 1013.2 |
| 20260902231403 | 66 | 182 | 0.0 | 3.0 | 0.00 | 0.00 | 0.00 | 83 | 1013.2 |
| 20260902230404 | 67 | 151 | 1.0 | 10.0 | 0.00 | 0.00 | 0.00 | 83 | 1013.5 |
| 20260902224404 | 67 | 147 | 1.0 | 12.0 | 0.00 | 0.00 | 0.00 | 82 | 1013.8 |
| 20260902223404 | 67 | 194 | 0.0 | 7.0 | 0.00 | 0.00 | 0.00 | 82 | 1014.0 |
| 20260902222404 | 68 | 176 | 2.0 | 14.0 | 0.00 | 0.00 | 0.00 | 82 | 1013.5 |
| 20260902221403 | 68 | 170 | 2.0 | 16.0 | 0.00 | 0.00 | 0.00 | 81 | 1013.8 |
| 20260902220404 | 68 | 178 | 1.0 | 10.0 | 0.00 | 0.00 | 0.00 | 80 | 1014.1 |
| 20260902215425 | 69 | 159 | 0.0 | 10.0 | 0.00 | 0.00 | 0.00 | 80 | 1014.2 |
| 20260902214404 | 69 | 134 | 2.0 | 11.0 | 0.00 | 0.00 | 0.00 | 79 | 1014.4 |
| 20260902213403 | 70 | 129 | 2.0 | 10.0 | 0.00 | 0.00 | 0.00 | 80 | 1014.4 |
| 20260902212404 | 70 | 196 | 0.0 | 0.0 | 0.00 | 0.00 | 0.00 | 80 | 1014.8 |
| 20260902211403 | 70 | 159 | 0.0 | 0.0 | 0.00 | 0.00 | 0.00 | 80 | 1015.1 |
| 20260902210404 | 70 | 203 | 0.0 | 0.0 | 0.00 | 0.00 | 0.00 | 79 | 1015.0 |
| 20260902205403 | 71 | 159 | 0.0 | 0.0 | 0.00 | 0.00 | 0.00 | 79 | 1015.0 |
| 20260902204404 | 71 | 146 | 0.0 | 0.0 | 0.00 | 0.00 | 0.00 | 78 | 1014.7 |
| 20260902203403 | 72 | 92 | 0.0 | 0.0 | 0.00 | 0.00 | 0.00 | 77 | 1014.7 |
| 20260902202426 | 71 | 86 | 0.0 | 0.0 | 0.00 | 0.00 | 0.00 | 78 | 1015.0 |
| 20260902201424 | 72 | 174 | 0.0 | 0.0 | 0.00 | 0.00 | 0.00 | 76 | 1015.6 |
| 20260902200404 | 72 | 132 | 0.0 | 0.0 | 0.00 | 0.00 | 0.00 | 78 | 1015.6 |
| 20260902195403 | 71 | 160 | 0.0 | 0.0 | 0.00 | 0.00 | 0.00 | 76 | 1015.4 |
| 20260902194403 | 72 | 191 | 0.0 | 0.0 | 0.00 | 0.00 | 0.00 | 78 | 1015.1 |
| 20260902193404 | 72 | 160 | 0.0 | 0.0 | 0.00 | 0.00 | 0.00 | 77 | 1015.2 |
| 20260902192404 | 73 | 164 | 0.0 | 0.0 | 0.00 | 0.00 | 0.00 | 77 | 1015.4 |
| 20260902191404 | 73 | 199 | 0.0 | 0.0 | 0.00 | 0.00 | 0.00 | 73 | 1015.6 |
| 20260902190404 | 74 | 209 | 0.0 | 0.0 | 0.00 | 0.00 | 0.00 | 72 | 1015.5 |
| 20260902185446 | 75 | 240 | 0.0 | 0.0 | 0.00 | 0.00 | 0.00 | 73 | 1015.6 |
| 20260902184403 | 74 | 138 | 0.0 | 0.0 | 0.00 | 0.00 | 0.00 | 74 | 1015.7 |
| 20260902183404 | 74 | 162 | 0.0 | 0.0 | 0.00 | 0.00 | 0.00 | 74 | 1015.8 |
| 20260902182425 | 74 | 121 | 0.0 | 0.0 | 0.00 | 0.00 | 0.00 | 72 | 1016.0 |
| 20260902181425 | 75 | 235 | 0.0 | 0.0 | 0.00 | 0.00 | 0.00 | 74 | 1016.0 |
| 20260902180403 | 74 | 269 | 0.0 | 0.0 | 0.00 | 0.00 | 0.00 | 73 | 1015.9 |